sensor_id;sensor_type;location;lat;lon;timestamp;pressure;altitude;pressure_sealevel;temperature;humidity
44926;BME280;30662;51.210;7.656;2023-03-14T00:02:26;150841.00;;;8.16;100.00
44926;BME280;30662;51.210;7.656;2023-03-14T00:04:56;150827.09;;;8.10;100.00
44926;BME280;30662;51.210;7.656;2023-03-14T00:07:22;150841.00;;;8.16;100.00
44926;BME280;30662;51.210;7.656;2023-03-14T00:09:51;150851.13;;;8.20;100.00
44926;BME280;30662;51.210;7.656;2023-03-14T00:12:17;150857.44;;;8.22;100.00
44926;BME280;30662;51.210;7.656;2023-03-14T00:14:42;150885.25;;;8.34;100.00
44926;BME280;30662;51.210;7.656;2023-03-14T00:17:09;150862.47;;;8.24;100.00
44926;BME280;30662;51.210;7.656;2023-03-14T00:19:35;150849.88;;;8.19;100.00
44926;BME280;30662;51.210;7.656;2023-03-14T00:22:01;150843.53;;;8.17;100.00
44926;BME280;30662;51.210;7.656;2023-03-14T00:24:27;150838.47;;;8.15;100.00
44926;BME280;30662;51.210;7.656;2023-03-14T00:26:52;150856.19;;;8.22;100.00
44926;BME280;30662;51.210;7.656;2023-03-14T00:29:18;150851.13;;;8.20;100.00
44926;BME280;30662;51.210;7.656;2023-03-14T00:31:44;150870.09;;;8.27;100.00
44926;BME280;30662;51.210;7.656;2023-03-14T00:34:10;150871.34;;;8.28;100.00
44926;BME280;30662;51.210;7.656;2023-03-14T00:36:36;150857.44;;;8.22;100.00
44926;BME280;30662;51.210;7.656;2023-03-14T00:39:02;150853.66;;;8.21;100.00
44926;BME280;30662;51.210;7.656;2023-03-14T00:41:28;150856.19;;;8.22;100.00
44926;BME280;30662;51.210;7.656;2023-03-14T00:43:54;150863.75;;;8.25;100.00
44926;BME280;30662;51.210;7.656;2023-03-14T00:46:20;150862.47;;;8.24;100.00
44926;BME280;30662;51.210;7.656;2023-03-14T00:48:46;150867.56;;;8.26;100.00
44926;BME280;30662;51.210;7.656;2023-03-14T00:51:12;150873.88;;;8.29;100.00
44926;BME280;30662;51.210;7.656;2023-03-14T00:53:39;150862.47;;;8.24;100.00
44926;BME280;30662;51.210;7.656;2023-03-14T00:56:08;150870.09;;;8.27;100.00
44926;BME280;30662;51.210;7.656;2023-03-14T00:58:34;150856.19;;;8.22;100.00
44926;BME280;30662;51.210;7.656;2023-03-14T01:01:06;150873.88;;;8.29;100.00
44926;BME280;30662;51.210;7.656;2023-03-14T01:03:32;150859.97;;;8.23;100.00
44926;BME280;30662;51.210;7.656;2023-03-14T01:06:16;150853.66;;;8.21;100.00
44926;BME280;30662;51.210;7.656;2023-03-14T01:08:43;150863.75;;;8.25;100.00
44926;BME280;30662;51.210;7.656;2023-03-14T01:11:12;150848.63;;;8.19;100.00
44926;BME280;30662;51.210;7.656;2023-03-14T01:13:38;150844.78;;;8.17;100.00
44926;BME280;30662;51.210;7.656;2023-03-14T01:16:07;150853.66;;;8.21;100.00
44926;BME280;30662;51.210;7.656;2023-03-14T01:18:34;150847.31;;;8.18;100.00
44926;BME280;30662;51.210;7.656;2023-03-14T01:21:04;150852.41;;;8.20;100.00
44926;BME280;30662;51.210;7.656;2023-03-14T01:23:34;150829.66;;;8.11;100.00
44926;BME280;30662;51.210;7.656;2023-03-14T01:26:00;150825.84;;;8.10;100.00
44926;BME280;30662;51.210;7.656;2023-03-14T01:28:26;150787.94;;;7.94;100.00
44926;BME280;30662;51.210;7.656;2023-03-14T01:30:52;150774.03;;;7.89;100.00
44926;BME280;30662;51.210;7.656;2023-03-14T01:33:18;150790.47;;;7.95;100.00
44926;BME280;30662;51.210;7.656;2023-03-14T01:35:43;150786.69;;;7.94;100.00
44926;BME280;30662;51.210;7.656;2023-03-14T01:38:09;150804.38;;;8.01;100.00
44926;BME280;30662;51.210;7.656;2023-03-14T01:40:42;150761.44;;;7.84;100.00
44926;BME280;30662;51.210;7.656;2023-03-14T01:43:17;150766.47;;;7.86;100.00
44926;BME280;30662;51.210;7.656;2023-03-14T01:49:06;150775.28;;;7.89;100.00
44926;BME280;30662;51.210;7.656;2023-03-14T01:54:25;150628.75;;;7.30;100.00
44926;BME280;30662;51.210;7.656;2023-03-14T01:57:03;150455.84;;;6.60;100.00
44926;BME280;30662;51.210;7.656;2023-03-14T01:59:31;150396.47;;;6.36;100.00
44926;BME280;30662;51.210;7.656;2023-03-14T02:01:58;150366.22;;;6.24;100.00
44926;BME280;30662;51.210;7.656;2023-03-14T02:04:28;150342.22;;;6.15;100.00
44926;BME280;30662;51.210;7.656;2023-03-14T02:07:16;150359.88;;;6.22;100.00
44926;BME280;30662;51.210;7.656;2023-03-14T02:09:44;150348.56;;;6.17;100.00
44926;BME280;30662;51.210;7.656;2023-03-14T02:12:11;150334.66;;;6.12;100.00
44926;BME280;30662;51.210;7.656;2023-03-14T02:14:37;150364.97;;;6.24;100.00
44926;BME280;30662;51.210;7.656;2023-03-14T02:17:05;150367.50;;;6.25;100.00
44926;BME280;30662;51.210;7.656;2023-03-14T02:22:17;150334.66;;;6.12;100.00
44926;BME280;30662;51.210;7.656;2023-03-14T02:27:20;150406.59;;;6.41;100.00
44926;BME280;30662;51.210;7.656;2023-03-14T02:30:16;150385.16;;;6.32;100.00
44926;BME280;30662;51.210;7.656;2023-03-14T02:32:48;150380.06;;;6.30;100.00
44926;BME280;30662;51.210;7.656;2023-03-14T02:35:20;150391.44;;;6.34;100.00
44926;BME280;30662;51.210;7.656;2023-03-14T02:37:52;150419.22;;;6.46;100.00
44926;BME280;30662;51.210;7.656;2023-03-14T02:40:19;150425.53;;;6.48;100.00
44926;BME280;30662;51.210;7.656;2023-03-14T02:42:45;150443.19;;;6.55;100.00
44926;BME280;30662;51.210;7.656;2023-03-14T02:47:41;150446.97;;;6.57;100.00
44926;BME280;30662;51.210;7.656;2023-03-14T02:50:12;150486.09;;;6.73;100.00
44926;BME280;30662;51.210;7.656;2023-03-14T02:52:38;150472.25;;;6.67;100.00
44926;BME280;30662;51.210;7.656;2023-03-14T02:55:05;150484.84;;;6.72;100.00
44926;BME280;30662;51.210;7.656;2023-03-14T02:57:31;150481.06;;;6.71;100.00
44926;BME280;30662;51.210;7.656;2023-03-14T03:00:01;150512.63;;;6.83;100.00
44926;BME280;30662;51.210;7.656;2023-03-14T03:02:29;150502.50;;;6.79;100.00
44926;BME280;30662;51.210;7.656;2023-03-14T03:04:55;150482.31;;;6.71;100.00
44926;BME280;30662;51.210;7.656;2023-03-14T03:07:21;150487.34;;;6.73;100.00
44926;BME280;30662;51.210;7.656;2023-03-14T03:09:47;150481.06;;;6.71;100.00
44926;BME280;30662;51.210;7.656;2023-03-14T03:12:15;150488.66;;;6.74;100.00
44926;BME280;30662;51.210;7.656;2023-03-14T03:14:41;150494.94;;;6.76;100.00
44926;BME280;30662;51.210;7.656;2023-03-14T03:17:07;150482.31;;;6.71;100.00
44926;BME280;30662;51.210;7.656;2023-03-14T03:19:33;150477.28;;;6.69;100.00
44926;BME280;30662;51.210;7.656;2023-03-14T03:21:59;150464.63;;;6.64;100.00
44926;BME280;30662;51.210;7.656;2023-03-14T03:24:26;150463.38;;;6.63;100.00
44926;BME280;30662;51.210;7.656;2023-03-14T03:26:52;150452.00;;;6.59;100.00
44926;BME280;30662;51.210;7.656;2023-03-14T03:29:19;150467.16;;;6.65;100.00
44926;BME280;30662;51.210;7.656;2023-03-14T03:31:44;150486.09;;;6.73;100.00
44926;BME280;30662;51.210;7.656;2023-03-14T03:34:12;150467.16;;;6.65;100.00
44926;BME280;30662;51.210;7.656;2023-03-14T03:36:38;150491.19;;;6.75;100.00
44926;BME280;30662;51.210;7.656;2023-03-14T03:39:04;150488.66;;;6.74;100.00
44926;BME280;30662;51.210;7.656;2023-03-14T03:41:30;150491.19;;;6.75;100.00
44926;BME280;30662;51.210;7.656;2023-03-14T03:43:56;150492.44;;;6.75;100.00
44926;BME280;30662;51.210;7.656;2023-03-14T03:46:23;150470.97;;;6.67;100.00
44926;BME280;30662;51.210;7.656;2023-03-14T03:48:54;150481.06;;;6.71;100.00
44926;BME280;30662;51.210;7.656;2023-03-14T03:51:20;150465.91;;;6.64;100.00
44926;BME280;30662;51.210;7.656;2023-03-14T03:53:46;150459.59;;;6.62;100.00
44926;BME280;30662;51.210;7.656;2023-03-14T03:56:12;150474.75;;;6.68;100.00
44926;BME280;30662;51.210;7.656;2023-03-14T03:58:38;150470.97;;;6.67;100.00
44926;BME280;30662;51.210;7.656;2023-03-14T04:01:05;150511.38;;;6.83;100.00
44926;BME280;30662;51.210;7.656;2023-03-14T04:03:32;150507.59;;;6.81;100.00
44926;BME280;30662;51.210;7.656;2023-03-14T04:06:04;150508.84;;;6.82;100.00
44926;BME280;30662;51.210;7.656;2023-03-14T04:08:31;150492.44;;;6.75;100.00
44926;BME280;30662;51.210;7.656;2023-03-14T04:10:57;150498.72;;;6.78;100.00
44926;BME280;30662;51.210;7.656;2023-03-14T04:13:24;150497.47;;;6.77;100.00
44926;BME280;30662;51.210;7.656;2023-03-14T04:15:50;150515.16;;;6.84;100.00
44926;BME280;30662;51.210;7.656;2023-03-14T04:18:17;150518.91;;;6.86;100.00
44926;BME280;30662;51.210;7.656;2023-03-14T04:20:43;150522.69;;;6.87;100.00
44926;BME280;30662;51.210;7.656;2023-03-14T04:23:09;150512.63;;;6.83;100.00
44926;BME280;30662;51.210;7.656;2023-03-14T04:25:35;150488.66;;;6.74;100.00
44926;BME280;30662;51.210;7.656;2023-03-14T04:28:01;150479.78;;;6.70;100.00
44926;BME280;30662;51.210;7.656;2023-03-14T04:30:27;150496.22;;;6.77;100.00
44926;BME280;30662;51.210;7.656;2023-03-14T04:32:53;150502.50;;;6.79;100.00
44926;BME280;30662;51.210;7.656;2023-03-14T04:35:19;150505.03;;;6.80;100.00
44926;BME280;30662;51.210;7.656;2023-03-14T04:37:44;150470.97;;;6.67;100.00
44926;BME280;30662;51.210;7.656;2023-03-14T04:40:15;150479.78;;;6.70;100.00
44926;BME280;30662;51.210;7.656;2023-03-14T04:42:43;150482.31;;;6.71;100.00
44926;BME280;30662;51.210;7.656;2023-03-14T04:45:09;150503.75;;;6.80;100.00
44926;BME280;30662;51.210;7.656;2023-03-14T04:47:35;150505.03;;;6.80;100.00
44926;BME280;30662;51.210;7.656;2023-03-14T04:50:01;150512.63;;;6.83;100.00
44926;BME280;30662;51.210;7.656;2023-03-14T04:52:27;150497.47;;;6.77;100.00
44926;BME280;30662;51.210;7.656;2023-03-14T04:54:53;150484.84;;;6.72;100.00
44926;BME280;30662;51.210;7.656;2023-03-14T04:57:19;150484.84;;;6.72;100.00
44926;BME280;30662;51.210;7.656;2023-03-14T04:59:45;150482.31;;;6.71;100.00
44926;BME280;30662;51.210;7.656;2023-03-14T05:02:11;150479.78;;;6.70;100.00
44926;BME280;30662;51.210;7.656;2023-03-14T05:04:37;150492.44;;;6.75;100.00
44926;BME280;30662;51.210;7.656;2023-03-14T05:07:02;150496.22;;;6.77;100.00
44926;BME280;30662;51.210;7.656;2023-03-14T05:09:28;150474.75;;;6.68;100.00
44926;BME280;30662;51.210;7.656;2023-03-14T05:11:54;150444.47;;;6.56;100.00
44926;BME280;30662;51.210;7.656;2023-03-14T05:14:20;150458.34;;;6.61;100.00
44926;BME280;30662;51.210;7.656;2023-03-14T05:16:46;150454.56;;;6.60;100.00
44926;BME280;30662;51.210;7.656;2023-03-14T05:19:11;150462.13;;;6.63;100.00
44926;BME280;30662;51.210;7.656;2023-03-14T05:21:37;150479.78;;;6.70;100.00
44926;BME280;30662;51.210;7.656;2023-03-14T05:24:03;150474.75;;;6.68;100.00
44926;BME280;30662;51.210;7.656;2023-03-14T05:26:29;150476.03;;;6.69;100.00
44926;BME280;30662;51.210;7.656;2023-03-14T05:28:55;150497.47;;;6.77;100.00
44926;BME280;30662;51.210;7.656;2023-03-14T05:31:21;150488.66;;;6.74;100.00
44926;BME280;30662;51.210;7.656;2023-03-14T05:33:47;150501.25;;;6.79;100.00
44926;BME280;30662;51.210;7.656;2023-03-14T05:36:13;150494.94;;;6.76;100.00
44926;BME280;30662;51.210;7.656;2023-03-14T05:38:39;150477.28;;;6.69;100.00
44926;BME280;30662;51.210;7.656;2023-03-14T05:41:05;150486.09;;;6.73;100.00
44926;BME280;30662;51.210;7.656;2023-03-14T05:43:31;150488.66;;;6.74;100.00
44926;BME280;30662;51.210;7.656;2023-03-14T05:45:57;150484.84;;;6.72;100.00
44926;BME280;30662;51.210;7.656;2023-03-14T05:48:23;150477.28;;;6.69;100.00
44926;BME280;30662;51.210;7.656;2023-03-14T05:50:55;150474.75;;;6.68;100.00
44926;BME280;30662;51.210;7.656;2023-03-14T05:53:21;150481.06;;;6.71;100.00
44926;BME280;30662;51.210;7.656;2023-03-14T05:55:46;150460.88;;;6.62;100.00
44926;BME280;30662;51.210;7.656;2023-03-14T05:58:12;150483.56;;;6.72;100.00
44926;BME280;30662;51.210;7.656;2023-03-14T06:00:38;150446.97;;;6.57;100.00
44926;BME280;30662;51.210;7.656;2023-03-14T06:03:04;150457.09;;;6.61;100.00
44926;BME280;30662;51.210;7.656;2023-03-14T06:05:32;150452.00;;;6.59;100.00
44926;BME280;30662;51.210;7.656;2023-03-14T06:07:58;150463.38;;;6.63;100.00
44926;BME280;30662;51.210;7.656;2023-03-14T06:10:24;150438.16;;;6.53;100.00
44926;BME280;30662;51.210;7.656;2023-03-14T06:12:50;150444.47;;;6.56;100.00
44926;BME280;30662;51.210;7.656;2023-03-14T06:15:16;150438.16;;;6.53;100.00
44926;BME280;30662;51.210;7.656;2023-03-14T06:17:41;150431.81;;;6.51;100.00
44926;BME280;30662;51.210;7.656;2023-03-14T06:20:08;150449.50;;;6.58;100.00
44926;BME280;30662;51.210;7.656;2023-03-14T06:22:34;150458.34;;;6.61;100.00
44926;BME280;30662;51.210;7.656;2023-03-14T06:25:00;150425.53;;;6.48;100.00
44926;BME280;30662;51.210;7.656;2023-03-14T06:27:26;150425.53;;;6.48;100.00
44926;BME280;30662;51.210;7.656;2023-03-14T06:29:52;150440.69;;;6.54;100.00
44926;BME280;30662;51.210;7.656;2023-03-14T06:32:18;150426.78;;;6.49;100.00
44926;BME280;30662;51.210;7.656;2023-03-14T06:34:45;150433.06;;;6.51;100.00
44926;BME280;30662;51.210;7.656;2023-03-14T06:37:10;150457.09;;;6.61;100.00
44926;BME280;30662;51.210;7.656;2023-03-14T06:39:37;150488.66;;;6.74;100.00
44926;BME280;30662;51.210;7.656;2023-03-14T06:42:04;150483.56;;;6.72;100.00
44926;BME280;30662;51.210;7.656;2023-03-14T06:44:30;150477.28;;;6.69;100.00
44926;BME280;30662;51.210;7.656;2023-03-14T06:46:56;150488.66;;;6.74;100.00
44926;BME280;30662;51.210;7.656;2023-03-14T06:49:22;150478.53;;;6.70;100.00
44926;BME280;30662;51.210;7.656;2023-03-14T06:51:48;150497.47;;;6.77;100.00
44926;BME280;30662;51.210;7.656;2023-03-14T06:54:13;150497.47;;;6.77;100.00
44926;BME280;30662;51.210;7.656;2023-03-14T06:56:39;150502.50;;;6.79;100.00
44926;BME280;30662;51.210;7.656;2023-03-14T06:59:05;150505.03;;;6.80;100.00
44926;BME280;30662;51.210;7.656;2023-03-14T07:01:31;150506.34;;;6.81;100.00
44926;BME280;30662;51.210;7.656;2023-03-14T07:04:03;150463.38;;;6.63;100.00
44926;BME280;30662;51.210;7.656;2023-03-14T07:06:29;150448.22;;;6.57;100.00
44926;BME280;30662;51.210;7.656;2023-03-14T07:08:56;150467.16;;;6.65;100.00
44926;BME280;30662;51.210;7.656;2023-03-14T07:11:22;150446.97;;;6.57;100.00
44926;BME280;30662;51.210;7.656;2023-03-14T07:13:48;150460.88;;;6.62;100.00
44926;BME280;30662;51.210;7.656;2023-03-14T07:16:14;150464.63;;;6.64;100.00
44926;BME280;30662;51.210;7.656;2023-03-14T07:18:40;150482.31;;;6.71;100.00
44926;BME280;30662;51.210;7.656;2023-03-14T07:21:07;150481.06;;;6.71;100.00
44926;BME280;30662;51.210;7.656;2023-03-14T07:23:34;150502.50;;;6.79;100.00
44926;BME280;30662;51.210;7.656;2023-03-14T07:26:01;150487.34;;;6.73;100.00
44926;BME280;30662;51.210;7.656;2023-03-14T07:28:27;150501.25;;;6.79;100.00
44926;BME280;30662;51.210;7.656;2023-03-14T07:30:54;150507.59;;;6.81;100.00
44926;BME280;30662;51.210;7.656;2023-03-14T07:33:20;150508.84;;;6.82;100.00
44926;BME280;30662;51.210;7.656;2023-03-14T07:35:49;150503.75;;;6.80;100.00
44926;BME280;30662;51.210;7.656;2023-03-14T07:38:16;150505.03;;;6.80;100.00
44926;BME280;30662;51.210;7.656;2023-03-14T07:40:42;150496.22;;;6.77;100.00
44926;BME280;30662;51.210;7.656;2023-03-14T07:43:08;150481.06;;;6.71;100.00
44926;BME280;30662;51.210;7.656;2023-03-14T07:45:34;150500.00;;;6.78;100.00
44926;BME280;30662;51.210;7.656;2023-03-14T07:48:08;150529.03;;;6.90;100.00
44926;BME280;30662;51.210;7.656;2023-03-14T07:50:34;150534.06;;;6.92;100.00
44926;BME280;30662;51.210;7.656;2023-03-14T07:52:59;150547.97;;;6.98;100.00
44926;BME280;30662;51.210;7.656;2023-03-14T07:55:25;150568.19;;;7.06;100.00
44926;BME280;30662;51.210;7.656;2023-03-14T07:57:51;150544.19;;;6.96;100.00
44926;BME280;30662;51.210;7.656;2023-03-14T08:00:17;150564.41;;;7.04;100.00
44926;BME280;30662;51.210;7.656;2023-03-14T08:02:43;150563.13;;;7.04;100.00
44926;BME280;30662;51.210;7.656;2023-03-14T08:05:09;150542.94;;;6.96;100.00
44926;BME280;30662;51.210;7.656;2023-03-14T08:07:36;150539.13;;;6.94;100.00
44926;BME280;30662;51.210;7.656;2023-03-14T08:10:02;150518.91;;;6.86;100.00
44926;BME280;30662;51.210;7.656;2023-03-14T08:12:28;150529.03;;;6.90;100.00
44926;BME280;30662;51.210;7.656;2023-03-14T08:14:54;150522.69;;;6.87;100.00
44926;BME280;30662;51.210;7.656;2023-03-14T08:17:20;150558.06;;;7.02;100.00
44926;BME280;30662;51.210;7.656;2023-03-14T08:19:46;150575.72;;;7.09;100.00
44926;BME280;30662;51.210;7.656;2023-03-14T08:22:11;150570.69;;;7.07;100.00
44926;BME280;30662;51.210;7.656;2023-03-14T08:24:37;150553.00;;;7.00;100.00
44926;BME280;30662;51.210;7.656;2023-03-14T08:27:03;150550.50;;;6.99;100.00
44926;BME280;30662;51.210;7.656;2023-03-14T08:29:29;150574.47;;;7.08;100.00
44926;BME280;30662;51.210;7.656;2023-03-14T08:31:55;150580.81;;;7.11;100.00
44926;BME280;30662;51.210;7.656;2023-03-14T08:34:21;150589.63;;;7.14;100.00
44926;BME280;30662;51.210;7.656;2023-03-14T08:36:47;150578.28;;;7.10;100.00
44926;BME280;30662;51.210;7.656;2023-03-14T08:39:13;150585.84;;;7.13;100.00
44926;BME280;30662;51.210;7.656;2023-03-14T08:41:39;150608.56;;;7.22;100.00
44926;BME280;30662;51.210;7.656;2023-03-14T08:44:09;150630.03;;;7.31;100.00
44926;BME280;30662;51.210;7.656;2023-03-14T08:46:37;150640.16;;;7.35;100.00
44926;BME280;30662;51.210;7.656;2023-03-14T08:49:03;150621.22;;;7.27;100.00
44926;BME280;30662;51.210;7.656;2023-03-14T08:51:29;150599.75;;;7.18;100.00
44926;BME280;30662;51.210;7.656;2023-03-14T08:53:55;150618.69;;;7.26;100.00
44926;BME280;30662;51.210;7.656;2023-03-14T08:56:21;150619.94;;;7.27;100.00
44926;BME280;30662;51.210;7.656;2023-03-14T08:58:49;150662.88;;;7.44;100.00
44926;BME280;30662;51.210;7.656;2023-03-14T09:01:14;150676.78;;;7.50;100.00
44926;BME280;30662;51.210;7.656;2023-03-14T09:03:40;150681.81;;;7.52;100.00
44926;BME280;30662;51.210;7.656;2023-03-14T09:06:09;150664.13;;;7.44;100.00
44926;BME280;30662;51.210;7.656;2023-03-14T09:08:36;150671.75;;;7.47;100.00
44926;BME280;30662;51.210;7.656;2023-03-14T09:11:07;150702.03;;;7.60;100.00
44926;BME280;30662;51.210;7.656;2023-03-14T09:13:34;150689.41;;;7.55;100.00
44926;BME280;30662;51.210;7.656;2023-03-14T09:16:01;150662.88;;;7.44;100.00
44926;BME280;30662;51.210;7.656;2023-03-14T09:18:27;150713.41;;;7.64;100.00
44926;BME280;30662;51.210;7.656;2023-03-14T09:20:52;150709.63;;;7.63;100.00
44926;BME280;30662;51.210;7.656;2023-03-14T09:23:19;150689.41;;;7.55;100.00
44926;BME280;30662;51.210;7.656;2023-03-14T09:25:44;150708.38;;;7.62;100.00
44926;BME280;30662;51.210;7.656;2023-03-14T09:28:10;150710.88;;;7.63;100.00
44926;BME280;30662;51.210;7.656;2023-03-14T09:30:36;150728.56;;;7.70;100.00
44926;BME280;30662;51.210;7.656;2023-03-14T09:33:02;150703.28;;;7.60;100.00
44926;BME280;30662;51.210;7.656;2023-03-14T09:35:28;150717.19;;;7.66;100.00
44926;BME280;30662;51.210;7.656;2023-03-14T09:37:54;150702.03;;;7.60;100.00
44926;BME280;30662;51.210;7.656;2023-03-14T09:40:21;150705.84;;;7.61;100.00
44926;BME280;30662;51.210;7.656;2023-03-14T09:42:53;150722.28;;;7.68;100.00
44926;BME280;30662;51.210;7.656;2023-03-14T09:47:52;150699.50;;;7.59;100.00
44926;BME280;30662;51.210;7.656;2023-03-14T09:50:26;150709.63;;;7.63;100.00
44926;BME280;30662;51.210;7.656;2023-03-14T09:53:02;150707.09;;;7.62;100.00
44926;BME280;30662;51.210;7.656;2023-03-14T09:55:28;150713.41;;;7.64;100.00
44926;BME280;30662;51.210;7.656;2023-03-14T09:57:59;150699.50;;;7.59;100.00
44926;BME280;30662;51.210;7.656;2023-03-14T10:00:27;150660.34;;;7.43;100.00
44926;BME280;30662;51.210;7.656;2023-03-14T10:02:59;150632.59;;;7.32;100.00
44926;BME280;30662;51.210;7.656;2023-03-14T10:05:27;150616.16;;;7.25;100.00
44926;BME280;30662;51.210;7.656;2023-03-14T10:07:56;150623.72;;;7.28;100.00
44926;BME280;30662;51.210;7.656;2023-03-14T10:10:24;150593.41;;;7.16;100.00
44926;BME280;30662;51.210;7.656;2023-03-14T10:12:58;150637.63;;;7.34;100.00
44926;BME280;30662;51.210;7.656;2023-03-14T10:15:30;150627.50;;;7.30;100.00
44926;BME280;30662;51.210;7.656;2023-03-14T10:17:59;150612.34;;;7.24;100.00
44926;BME280;30662;51.210;7.656;2023-03-14T10:20:36;150601.00;;;7.19;100.00
44926;BME280;30662;51.210;7.656;2023-03-14T10:23:06;150630.03;;;7.31;100.00
44926;BME280;30662;51.210;7.656;2023-03-14T10:25:37;150536.59;;;6.93;100.00
44926;BME280;30662;51.210;7.656;2023-03-14T10:28:04;150464.63;;;6.64;100.00
44926;BME280;30662;51.210;7.656;2023-03-14T10:32:56;150455.84;;;6.60;100.00
44926;BME280;30662;51.210;7.656;2023-03-14T10:35:23;150425.53;;;6.48;100.00
44926;BME280;30662;51.210;7.656;2023-03-14T10:37:53;150414.16;;;6.44;100.00
44926;BME280;30662;51.210;7.656;2023-03-14T10:40:27;150391.44;;;6.34;100.00
44926;BME280;30662;51.210;7.656;2023-03-14T10:42:54;150340.97;;;6.14;100.00
44926;BME280;30662;51.210;7.656;2023-03-14T10:45:31;150329.63;;;6.10;100.00
44926;BME280;30662;51.210;7.656;2023-03-14T10:48:05;150335.94;;;6.12;100.00
44926;BME280;30662;51.210;7.656;2023-03-14T10:50:33;150351.06;;;6.18;100.00
44926;BME280;30662;51.210;7.656;2023-03-14T10:53:02;150279.13;;;5.89;100.00
44926;BME280;30662;51.210;7.656;2023-03-14T10:55:50;150293.06;;;5.95;100.00
44926;BME280;30662;51.210;7.656;2023-03-14T10:58:28;150277.84;;;5.89;100.00
44926;BME280;30662;51.210;7.656;2023-03-14T11:03:33;150270.25;;;5.86;100.00
44926;BME280;30662;51.210;7.656;2023-03-14T11:06:06;150251.34;;;5.78;100.00
44926;BME280;30662;51.210;7.656;2023-03-14T11:08:46;150266.50;;;5.84;100.00
44926;BME280;30662;51.210;7.656;2023-03-14T11:11:25;150248.81;;;5.77;100.00
44926;BME280;30662;51.210;7.656;2023-03-14T11:14:10;150228.66;;;5.69;100.00
44926;BME280;30662;51.210;7.656;2023-03-14T11:19:43;150255.16;;;5.79;100.00
44926;BME280;30662;51.210;7.656;2023-03-14T11:25:37;150241.28;;;5.74;100.00
44926;BME280;30662;51.210;7.656;2023-03-14T11:28:18;150223.63;;;5.67;100.00
44926;BME280;30662;51.210;7.656;2023-03-14T11:30:58;150222.34;;;5.66;100.00
44926;BME280;30662;51.210;7.656;2023-03-14T11:33:50;150203.44;;;5.59;100.00
44926;BME280;30662;51.210;7.656;2023-03-14T11:36:25;150217.28;;;5.64;100.00
44926;BME280;30662;51.210;7.656;2023-03-14T11:38:56;150160.53;;;5.41;100.00
44926;BME280;30662;51.210;7.656;2023-03-14T11:41:27;150129.00;;;5.29;100.00
44926;BME280;30662;51.210;7.656;2023-03-14T11:43:57;150127.75;;;5.28;100.00
44926;BME280;30662;51.210;7.656;2023-03-14T11:46:27;150142.88;;;5.34;100.00
44926;BME280;30662;51.210;7.656;2023-03-14T11:49:32;150139.09;;;5.33;100.00
44926;BME280;30662;51.210;7.656;2023-03-14T11:52:03;150137.84;;;5.32;100.00
44926;BME280;30662;51.210;7.656;2023-03-14T11:57:10;150103.81;;;5.18;100.00
44926;BME280;30662;51.210;7.656;2023-03-14T12:07:42;150166.88;;;5.44;100.00
44926;BME280;30662;51.210;7.656;2023-03-14T12:10:16;150209.72;;;5.61;100.00
44926;BME280;30662;51.210;7.656;2023-03-14T12:12:42;150217.28;;;5.64;100.00
44926;BME280;30662;51.210;7.656;2023-03-14T12:15:26;150171.91;;;5.46;100.00
44926;BME280;30662;51.210;7.656;2023-03-14T12:17:54;150053.38;;;4.98;100.00
44926;BME280;30662;51.210;7.656;2023-03-14T12:20:24;149975.22;;;4.66;100.00
44926;BME280;30662;51.210;7.656;2023-03-14T12:22:56;149985.28;;;4.70;100.00
44926;BME280;30662;51.210;7.656;2023-03-14T12:25:26;149953.81;;;4.58;100.00
44926;BME280;30662;51.210;7.656;2023-03-14T12:30:26;149965.13;;;4.62;100.00
44926;BME280;30662;51.210;7.656;2023-03-14T12:43:32;149916.03;;;4.42;100.00
44926;BME280;30662;51.210;7.656;2023-03-14T12:48:45;149890.78;;;4.32;100.00
44926;BME280;30662;51.210;7.656;2023-03-14T12:51:35;149878.19;;;4.27;100.00
44926;BME280;30662;51.210;7.656;2023-03-14T12:54:14;149869.38;;;4.24;100.00
44926;BME280;30662;51.210;7.656;2023-03-14T12:56:56;149879.47;;;4.28;100.00
44926;BME280;30662;51.210;7.656;2023-03-14T13:04:32;149849.22;;;4.15;100.00
44926;BME280;30662;51.210;7.656;2023-03-14T13:07:11;149885.75;;;4.30;100.00
44926;BME280;30662;51.210;7.656;2023-03-14T13:12:18;149811.44;;;4.00;100.00
44926;BME280;30662;51.210;7.656;2023-03-14T13:14:49;149834.09;;;4.09;100.00
44926;BME280;30662;51.210;7.656;2023-03-14T13:17:30;149845.47;;;4.14;100.00
44926;BME280;30662;51.210;7.656;2023-03-14T13:20:10;149842.94;;;4.13;100.00
44926;BME280;30662;51.210;7.656;2023-03-14T13:22:37;149905.91;;;4.38;100.00
44926;BME280;30662;51.210;7.656;2023-03-14T13:25:10;149975.22;;;4.66;100.00
44926;BME280;30662;51.210;7.656;2023-03-14T13:27:36;150033.19;;;4.90;100.00
44926;BME280;30662;51.210;7.656;2023-03-14T13:30:19;150136.59;;;5.32;100.00
44926;BME280;30662;51.210;7.656;2023-03-14T13:32:46;150251.34;;;5.78;100.00
44926;BME280;30662;51.210;7.656;2023-03-14T13:35:27;150333.41;;;6.11;100.00
44926;BME280;30662;51.210;7.656;2023-03-14T13:37:59;150387.66;;;6.33;100.00
44926;BME280;30662;51.210;7.656;2023-03-14T13:40:43;150310.72;;;6.02;100.00
44926;BME280;30662;51.210;7.656;2023-03-14T13:45:53;150174.41;;;5.47;100.00
44926;BME280;30662;51.210;7.656;2023-03-14T13:48:22;150077.34;;;5.08;100.00
44926;BME280;30662;51.210;7.656;2023-03-14T13:50:54;150097.50;;;5.16;100.00
44926;BME280;30662;51.210;7.656;2023-03-14T13:53:20;150064.72;;;5.03;100.00
44926;BME280;30662;51.210;7.656;2023-03-14T13:55:46;150045.81;;;4.95;100.00
44926;BME280;30662;51.210;7.656;2023-03-14T13:58:20;149989.09;;;4.72;100.00
44926;BME280;30662;51.210;7.656;2023-03-14T14:01:02;149973.97;;;4.66;100.00
44926;BME280;30662;51.210;7.656;2023-03-14T14:03:34;149912.19;;;4.41;100.00